createdAt,value
2019-05-12T00:50:28.616Z,5.38
2019-05-12T01:08:19.877Z,5.13
2019-05-12T01:09:19.891Z,5.08
2019-05-12T01:10:19.819Z,5.10
2019-05-12T01:11:20.513Z,5.05
2019-05-12T01:12:19.729Z,5.01
2019-05-12T01:13:19.698Z,5.01
2019-05-12T01:14:19.700Z,5.01
2019-05-12T01:15:19.511Z,4.92
2019-05-12T01:16:19.264Z,4.90
2019-05-12T01:17:19.254Z,4.90
2019-05-12T01:18:19.198Z,4.89
2019-05-12T01:19:19.177Z,4.79
2019-05-12T01:20:19.144Z,4.82
2019-05-12T01:21:19.127Z,4.92
2019-05-12T01:22:19.119Z,4.83
2019-05-12T01:23:23.053Z,4.82
2019-05-12T01:24:19.083Z,4.79
2019-05-12T01:25:19.086Z,4.82
2019-05-12T01:26:19.043Z,4.84
2019-05-12T01:27:19.054Z,4.74
2019-05-12T01:28:19.011Z,4.75
2019-05-12T01:29:18.972Z,4.71
2019-05-12T01:30:18.995Z,4.66
2019-05-12T01:31:18.981Z,4.64
2019-05-12T01:32:18.931Z,4.64
2019-05-12T01:33:18.893Z,4.63
2019-05-12T01:34:18.882Z,4.53
2019-05-12T01:35:18.881Z,4.57
2019-05-12T01:36:18.839Z,4.49
2019-05-12T01:37:18.840Z,4.43
2019-05-12T01:38:18.795Z,4.45
2019-05-12T01:39:18.921Z,4.45
2019-05-12T01:40:19.138Z,4.39
2019-05-12T01:41:18.762Z,4.39
2019-05-12T01:42:18.723Z,4.39
2019-05-12T01:43:21.225Z,4.36
2019-05-12T01:44:18.682Z,4.39
2019-05-12T01:45:18.678Z,4.32
2019-05-12T01:46:18.668Z,4.34
2019-05-12T01:47:18.871Z,4.21
2019-05-12T01:48:18.616Z,4.30
2019-05-12T01:49:18.834Z,4.18
2019-05-12T01:50:18.594Z,4.20
2019-05-12T01:51:18.569Z,4.14
2019-05-12T01:52:18.544Z,4.10
2019-05-12T01:53:18.515Z,4.14
2019-05-12T01:54:18.966Z,4.22
2019-05-12T01:55:18.693Z,4.21
2019-05-12T01:56:18.462Z,4.16
2019-05-12T01:57:18.924Z,4.16
2019-05-12T01:58:19.400Z,4.12
2019-05-12T01:59:18.601Z,4.06
2019-05-12T02:00:18.401Z,4.04
2019-05-12T02:01:18.528Z,4.06
2019-05-12T02:02:18.342Z,4.06
2019-05-12T02:03:18.341Z,3.95
2019-05-12T02:04:18.318Z,3.96
2019-05-12T02:05:18.411Z,3.96
2019-05-12T02:06:18.533Z,3.86
2019-05-12T02:07:18.586Z,3.89
2019-05-12T02:08:18.566Z,3.88
2019-05-12T02:09:18.660Z,3.82
2019-05-12T02:10:18.198Z,3.86
2019-05-12T02:11:18.468Z,3.88
2019-05-12T02:12:18.297Z,3.86
2019-05-12T02:13:18.326Z,3.85
2019-05-12T02:14:18.407Z,3.68
2019-05-12T02:15:18.448Z,3.78
2019-05-12T02:16:18.827Z,3.76
2019-05-12T02:17:18.072Z,3.81
2019-05-12T02:18:18.054Z,3.71
2019-05-12T02:19:18.021Z,3.71
2019-05-12T02:20:18.216Z,3.64
2019-05-12T02:21:18.840Z,3.66
2019-05-12T02:22:18.946Z,3.74
2019-05-12T02:23:17.969Z,3.73
2019-05-12T02:24:26.679Z,3.73
2019-05-12T02:25:18.621Z,3.67
2019-05-12T02:26:18.956Z,3.68
2019-05-12T02:27:17.948Z,3.67
2019-05-12T02:28:18.094Z,3.68
2019-05-12T02:29:18.413Z,3.73
2019-05-12T02:30:20.337Z,3.64
2019-05-12T02:31:20.599Z,3.68
2019-05-12T02:32:17.798Z,3.67
2019-05-12T02:36:15.079Z,3.66
2019-05-12T02:37:15.317Z,3.73
2019-05-12T02:38:14.433Z,3.67
2019-05-12T02:39:14.837Z,3.68
2019-05-12T03:11:35.523Z,4.78
2019-05-12T03:12:34.483Z,4.86
2019-05-12T03:57:16.814Z,6.07
2019-05-12T03:58:16.860Z,6.02
2019-05-12T03:59:16.855Z,5.98
2019-05-12T04:00:16.861Z,6.09
2019-05-12T04:01:16.785Z,6.15
2019-05-12T04:05:38.269Z,6.17
2019-05-12T04:17:18.725Z,6.28
2019-05-12T04:28:45.554Z,6.31
2019-05-12T04:34:06.893Z,6.28
2019-05-12T04:35:06.602Z,6.31
2019-05-12T04:36:06.318Z,6.36
2019-05-12T04:37:06.091Z,6.43
2019-05-12T04:38:06.102Z,6.46
2019-05-12T04:39:06.147Z,6.44
2019-05-12T04:40:06.072Z,6.43
2019-05-12T04:41:06.260Z,6.41
2019-05-12T04:42:05.943Z,6.38
2019-05-12T04:43:06.798Z,6.43
2019-05-12T04:44:06.370Z,6.43
2019-05-12T04:45:06.029Z,6.35
2019-05-12T04:48:27.886Z,6.57
2019-05-12T04:49:28.220Z,6.52
2019-05-12T05:59:50.398Z,7.78
2019-05-12T06:00:54.819Z,7.85
2019-05-12T06:03:48.092Z,7.88
2019-05-12T06:04:49.801Z,7.90
2019-05-12T06:05:48.047Z,7.99
2019-05-12T06:06:50.478Z,7.95
2019-05-12T06:07:47.987Z,8.03
2019-05-12T06:08:48.015Z,8.03
2019-05-12T06:09:47.928Z,8.05
2019-05-12T06:10:47.900Z,8.05
2019-05-12T06:11:47.905Z,8.08
2019-05-12T06:12:50.838Z,8.13
2019-05-12T06:13:47.858Z,8.13
2019-05-12T06:14:54.342Z,8.08
2019-05-12T06:15:47.845Z,8.13
2019-05-12T06:16:47.827Z,8.09
2019-05-12T06:17:47.775Z,8.16
2019-05-12T06:18:47.767Z,8.09
2019-05-12T06:19:47.833Z,8.20
2019-05-12T06:20:47.724Z,8.20
2019-05-12T06:21:47.727Z,8.14
2019-05-12T06:22:48.558Z,8.16
2019-05-12T06:23:47.671Z,8.23
2019-05-12T06:24:49.194Z,8.21
2019-05-12T06:33:44.814Z,8.31
2019-05-12T06:34:44.508Z,8.32
2019-05-12T07:00:35.567Z,8.74
2019-05-12T07:01:35.398Z,8.77
2019-05-12T07:02:44.578Z,8.77
2019-05-12T07:03:37.155Z,8.74
2019-05-12T07:04:35.290Z,8.74
2019-05-12T07:05:38.392Z,8.82
2019-05-12T07:06:34.886Z,8.82
2019-05-12T07:07:41.880Z,8.87
2019-05-12T07:08:38.319Z,8.84
2019-05-12T07:09:39.780Z,8.84
2019-05-12T07:10:42.995Z,8.93
2019-05-12T07:11:42.567Z,8.95
2019-05-12T07:12:43.598Z,8.89
2019-05-12T07:13:34.762Z,9.00
2019-05-12T07:14:34.784Z,8.99
2019-05-12T07:15:39.863Z,8.93
2019-05-12T07:16:34.750Z,8.97
2019-05-12T07:17:35.678Z,8.95
2019-05-12T07:18:37.113Z,8.92
2019-05-12T07:19:34.730Z,8.96
2019-05-12T07:20:38.749Z,9.02
2019-05-12T07:21:34.650Z,8.97
2019-05-12T07:22:43.572Z,9.03
2019-05-12T07:23:34.615Z,9.05
2019-05-12T07:24:34.585Z,9.05
2019-05-12T07:25:36.791Z,9.15
2019-05-12T07:26:34.531Z,9.18
2019-05-12T07:27:39.361Z,9.16
2019-05-12T07:28:36.229Z,9.24
2019-05-12T07:29:34.506Z,9.31
2019-05-12T07:30:35.317Z,9.24
2019-05-12T07:31:34.451Z,9.34
2019-05-12T07:32:34.480Z,9.37
2019-05-12T07:33:41.375Z,9.34
2019-05-12T07:34:34.415Z,9.39
2019-05-12T07:35:34.434Z,9.36
2019-05-12T07:36:34.397Z,9.29
2019-05-12T07:37:34.360Z,9.39
2019-05-12T07:38:34.445Z,9.39
2019-05-12T07:39:39.295Z,9.36
2019-05-12T07:40:37.376Z,9.36
2019-05-12T07:41:34.359Z,9.34
2019-05-12T08:23:18.351Z,10.25
2019-05-12T08:24:18.277Z,10.23
2019-05-12T08:28:15.470Z,10.33
2019-05-12T08:29:10.511Z,10.25
2019-05-12T08:31:40.352Z,10.23
2019-05-12T08:32:35.983Z,10.24
2019-05-12T08:34:40.546Z,10.36
2019-05-12T08:35:40.521Z,10.34
2019-05-12T08:37:46.125Z,10.36
2019-05-12T08:38:46.095Z,10.43
2019-05-12T08:40:45.346Z,10.46
2019-05-12T08:41:39.675Z,10.43
2019-05-12T08:43:47.135Z,10.45
2019-05-12T08:44:44.353Z,10.39
2019-05-12T08:45:44.558Z,10.45
2019-05-12T08:46:51.963Z,10.43
2019-05-12T08:47:44.284Z,10.53
2019-05-12T08:48:44.708Z,10.48
2019-05-12T08:49:51.008Z,10.57
2019-05-12T08:50:46.156Z,10.51
2019-05-12T08:51:44.348Z,10.57
2019-05-12T08:52:44.466Z,10.59
2019-05-12T08:53:44.178Z,10.51
2019-05-12T08:54:47.669Z,10.51
2019-05-12T08:55:44.143Z,10.57
2019-05-12T08:56:44.126Z,10.53
2019-05-12T08:57:49.433Z,10.61
2019-05-12T08:58:51.099Z,10.57
2019-05-12T08:59:44.232Z,10.53
2019-05-12T09:00:49.696Z,10.62
2019-05-12T09:01:44.048Z,10.53
2019-05-12T09:02:48.735Z,10.62
2019-05-12T09:03:44.388Z,10.53
2019-05-12T09:04:51.541Z,10.53
2019-05-12T09:05:44.557Z,10.53
2019-05-12T09:06:43.962Z,10.53
2019-05-12T09:07:43.951Z,10.51
2019-05-12T09:08:49.048Z,10.48
2019-05-12T09:09:44.030Z,10.55
2019-05-12T09:10:45.193Z,10.57
2019-05-12T09:11:44.170Z,10.61
2019-05-12T09:12:44.212Z,10.69
2019-05-12T09:13:44.106Z,10.67
2019-05-12T09:14:46.106Z,10.76
2019-05-12T09:15:43.988Z,10.77
2019-05-12T09:16:44.045Z,10.71
2019-05-12T09:17:52.674Z,10.84
2019-05-12T09:18:43.777Z,10.87
2019-05-12T09:19:43.781Z,11.00
2019-05-12T09:20:48.716Z,11.08
2019-05-12T09:21:44.353Z,11.07
2019-05-12T09:22:43.715Z,11.20
2019-05-12T09:23:45.660Z,11.34
2019-05-12T09:24:44.140Z,11.37
2019-05-12T09:25:46.818Z,11.40
2019-05-12T09:26:43.662Z,11.59
2019-05-12T09:27:48.055Z,11.73
2019-05-12T09:28:49.863Z,11.89
2019-05-12T09:29:43.671Z,12.03
2019-05-12T09:30:45.869Z,12.18
2019-05-12T09:31:44.027Z,12.39
2019-05-12T09:32:48.249Z,12.55
2019-05-12T09:33:44.569Z,13.03
2019-05-12T09:34:46.882Z,13.50
2019-05-12T09:35:43.944Z,13.83
2019-05-12T09:36:44.244Z,14.13
2019-05-12T09:37:44.128Z,14.45
2019-05-12T09:38:43.998Z,14.93
2019-05-12T09:39:47.411Z,15.15
2019-05-12T09:40:43.886Z,15.57
2019-05-12T09:41:49.465Z,15.80
2019-05-12T09:42:44.085Z,15.98
2019-05-12T09:43:48.915Z,16.18
2019-05-12T09:44:43.894Z,16.37
2019-05-12T09:45:51.635Z,16.58
2019-05-12T09:46:44.003Z,16.68
2019-05-12T09:47:43.744Z,16.98
2019-05-12T09:48:51.901Z,17.17
2019-05-12T09:49:44.438Z,17.52
2019-05-12T09:50:46.245Z,17.84
2019-05-12T09:51:45.926Z,18.05
2019-05-12T09:52:44.128Z,18.42
2019-05-12T09:53:51.024Z,18.68
2019-05-12T09:54:44.460Z,18.78
2019-05-12T09:55:43.898Z,19.00
2019-05-12T09:56:44.123Z,19.15
2019-05-12T09:57:45.134Z,19.41
2019-05-12T09:58:43.711Z,19.67
2019-05-12T09:59:45.905Z,20.03
2019-05-12T10:00:43.505Z,20.11
2019-05-12T10:01:45.945Z,20.07
2019-05-12T10:02:43.684Z,20.10
2019-05-12T10:03:43.727Z,20.02
2019-05-12T10:04:43.762Z,19.92
2019-05-12T10:05:44.178Z,19.94
2019-05-12T10:06:44.421Z,19.78
2019-05-12T10:07:44.548Z,19.62
2019-05-12T10:08:43.569Z,19.41
2019-05-12T10:09:44.012Z,19.15
2019-05-12T10:10:46.733Z,18.97
2019-05-12T10:11:44.736Z,18.86
2019-05-12T10:12:46.460Z,18.78
2019-05-12T10:13:44.960Z,18.74
2019-05-12T10:14:45.875Z,18.67
2019-05-12T10:15:43.088Z,18.70
2019-05-12T10:16:45.708Z,18.91
2019-05-12T10:17:43.509Z,19.04
2019-05-12T10:18:51.025Z,19.23
2019-05-12T10:19:43.464Z,19.38
2019-05-12T10:20:44.055Z,19.59
2019-05-12T10:21:43.993Z,19.49
2019-05-12T10:22:43.747Z,19.57
2019-05-12T10:23:43.614Z,19.35
2019-05-12T10:24:54.632Z,19.37
2019-05-12T10:25:44.717Z,19.32
2019-05-12T10:26:48.749Z,19.17
2019-05-12T10:27:44.334Z,19.23
2019-05-12T10:28:51.515Z,19.44
2019-05-12T10:29:43.691Z,19.49
2019-05-12T10:30:47.185Z,19.87
2019-05-12T10:31:44.516Z,20.10
2019-05-12T10:32:43.598Z,20.55
2019-05-12T10:33:43.359Z,20.88
2019-05-12T10:34:44.367Z,21.25
2019-05-12T10:35:43.912Z,21.44
2019-05-12T10:36:44.902Z,21.65
2019-05-12T10:37:43.706Z,21.78
2019-05-12T10:38:43.435Z,21.94
2019-05-12T10:39:42.884Z,22.30
2019-05-12T10:40:44.435Z,22.58
2019-05-12T10:41:43.692Z,22.63
2019-05-12T10:42:46.115Z,22.46
2019-05-12T10:43:43.397Z,22.38
2019-05-12T10:44:43.730Z,22.28
2019-05-12T10:45:44.182Z,22.25
2019-05-12T10:46:42.829Z,22.26
2019-05-12T10:47:42.827Z,22.22
2019-05-12T10:48:44.321Z,22.30
2019-05-12T10:49:44.150Z,22.12
2019-05-12T10:50:44.317Z,22.04
2019-05-12T10:51:44.140Z,21.80
2019-05-12T10:52:44.003Z,21.56
2019-05-12T10:53:43.257Z,21.19
2019-05-12T10:54:43.450Z,20.88
2019-05-12T10:55:44.062Z,20.67
2019-05-12T10:56:43.833Z,20.52
2019-05-12T10:57:43.895Z,20.34
2019-05-12T10:58:43.980Z,20.42
2019-05-12T10:59:45.264Z,20.50
2019-05-12T11:00:44.379Z,20.59
2019-05-12T11:01:47.229Z,20.74
2019-05-12T11:02:42.716Z,20.66
2019-05-12T11:03:50.660Z,20.75
2019-05-12T11:04:43.977Z,20.88
2019-05-12T11:05:44.088Z,21.23
2019-05-12T11:06:44.741Z,21.51
2019-05-12T11:07:43.580Z,21.75
2019-05-12T11:08:47.400Z,21.99
2019-05-12T11:09:43.942Z,22.25
2019-05-12T11:10:42.684Z,22.55
2019-05-12T11:11:46.773Z,22.84
2019-05-12T11:12:44.187Z,23.25
2019-05-12T11:13:48.609Z,23.44
2019-05-12T11:14:43.884Z,23.59
2019-05-12T11:15:47.771Z,23.70
2019-05-12T11:16:44.587Z,23.76
2019-05-12T11:17:46.066Z,23.79
2019-05-12T11:18:43.720Z,23.84
2019-05-12T11:19:47.109Z,23.71
2019-05-12T11:20:44.854Z,23.64
2019-05-12T11:21:44.337Z,23.44
2019-05-12T11:22:43.902Z,23.28
2019-05-12T11:23:43.637Z,22.99
2019-05-12T11:24:44.441Z,22.89
2019-05-12T11:25:43.977Z,22.95
2019-05-12T11:26:43.245Z,23.11
2019-05-12T11:27:43.685Z,23.28
2019-05-12T11:28:42.568Z,23.34
2019-05-12T11:29:48.593Z,23.33
2019-05-12T11:30:43.637Z,23.45
2019-05-12T11:31:44.098Z,23.28
2019-05-12T11:32:44.203Z,23.21
2019-05-12T11:33:43.611Z,23.18
2019-05-12T11:34:44.373Z,23.08
2019-05-12T11:35:43.507Z,23.29
2019-05-12T11:36:43.768Z,23.47
2019-05-12T11:37:42.529Z,23.54
2019-05-12T11:38:44.352Z,23.63
2019-05-12T11:39:45.251Z,23.63
2019-05-12T11:40:43.721Z,23.89
2019-05-12T11:41:44.231Z,23.92
2019-05-12T11:42:46.837Z,24.25
2019-05-12T11:43:42.497Z,24.46
2019-05-12T11:44:44.308Z,24.69
2019-05-12T11:45:44.222Z,25.01
2019-05-12T11:46:44.126Z,25.33
2019-05-12T11:47:44.642Z,25.62
2019-05-12T11:48:46.311Z,25.81
2019-05-12T11:49:44.164Z,26.01
2019-05-12T11:50:49.504Z,25.92
2019-05-12T11:51:42.510Z,25.92
2019-05-12T11:52:46.057Z,25.93
2019-05-12T11:53:44.548Z,25.88
2019-05-12T11:54:47.186Z,25.80
2019-05-12T11:55:43.814Z,25.67
2019-05-12T11:56:46.613Z,25.52
2019-05-12T11:57:43.774Z,25.49
2019-05-12T11:58:47.415Z,25.49
2019-05-12T11:59:43.451Z,25.33
2019-05-12T12:00:44.127Z,25.19
2019-05-12T12:01:47.435Z,25.03
2019-05-12T12:02:43.741Z,24.96
2019-05-12T12:03:44.047Z,24.97
2019-05-12T12:04:43.518Z,25.07
2019-05-12T12:05:44.278Z,25.34
2019-05-12T12:06:43.807Z,25.44
2019-05-12T12:07:49.072Z,25.61
2019-05-12T12:08:44.169Z,25.73
2019-05-12T12:09:43.852Z,25.89
2019-05-12T12:10:42.443Z,26.13
2019-05-12T12:11:43.339Z,26.37
2019-05-12T12:12:45.305Z,26.63
2019-05-12T12:13:42.457Z,26.86
2019-05-12T12:14:46.240Z,27.00
2019-05-12T12:15:42.449Z,27.28
2019-05-12T12:16:50.199Z,27.40
2019-05-12T12:17:44.149Z,27.57
2019-05-12T12:18:48.610Z,27.58
2019-05-12T12:19:46.701Z,27.67
2019-05-12T12:20:44.263Z,27.68
2019-05-12T12:21:48.054Z,27.78
2019-05-12T12:22:43.434Z,27.81
2019-05-12T12:23:48.817Z,27.85
2019-05-12T12:24:43.644Z,28.01
2019-05-12T12:25:43.079Z,28.06
2019-05-12T12:26:44.590Z,28.10
2019-05-12T12:27:44.249Z,28.03
2019-05-12T12:28:43.499Z,28.08
2019-05-12T12:29:43.861Z,27.94
2019-05-12T12:30:47.471Z,27.72
2019-05-12T12:31:43.394Z,27.50
2019-05-12T12:32:44.353Z,27.22
2019-05-12T12:33:46.867Z,26.96
2019-05-12T12:34:44.047Z,26.82
2019-05-12T12:35:44.352Z,26.70
2019-05-12T12:36:43.564Z,26.70
2019-05-12T12:37:44.838Z,26.67
2019-05-12T12:38:43.984Z,26.78
2019-05-12T12:39:43.473Z,26.96
2019-05-12T12:40:44.186Z,27.07
2019-05-12T12:41:45.669Z,27.19
2019-05-12T12:42:47.050Z,27.22
2019-05-12T12:43:43.267Z,27.22
2019-05-12T12:44:42.482Z,27.23
2019-05-12T12:45:43.449Z,27.33
2019-05-12T12:46:44.061Z,27.35
2019-05-12T12:47:44.407Z,27.64
2019-05-12T12:48:43.946Z,27.81
2019-05-12T12:49:47.570Z,27.97
2019-05-12T12:50:44.409Z,28.15
2019-05-12T12:51:43.561Z,28.27
2019-05-12T12:52:44.801Z,28.13
2019-05-12T12:53:43.769Z,28.13
2019-05-12T12:54:43.852Z,28.09
2019-05-12T12:55:43.716Z,28.16
2019-05-12T12:56:42.523Z,28.01
2019-05-12T12:57:46.467Z,28.18
2019-05-12T12:58:43.977Z,28.18
2019-05-12T12:59:50.997Z,28.19
2019-05-12T13:00:47.397Z,28.28
2019-05-12T13:01:44.275Z,28.38
2019-05-12T13:02:45.080Z,28.55
2019-05-12T13:03:43.496Z,28.56
2019-05-12T13:04:46.050Z,28.70
2019-05-12T13:05:43.896Z,28.71
2019-05-12T13:06:43.777Z,28.64
2019-05-12T13:07:43.949Z,28.78
2019-05-12T13:08:43.414Z,28.71
2019-05-12T13:09:44.107Z,28.68
2019-05-12T13:10:47.222Z,28.72
2019-05-12T13:11:44.450Z,28.74
2019-05-12T13:12:43.706Z,28.72
2019-05-12T13:13:42.590Z,28.72
2019-05-12T13:14:44.333Z,28.57
2019-05-12T13:15:44.408Z,28.41
2019-05-12T13:16:43.715Z,28.13
2019-05-12T13:17:44.739Z,28.00
2019-05-12T13:18:43.505Z,27.79
2019-05-12T13:19:43.684Z,27.88
2019-05-12T13:20:43.591Z,27.79
2019-05-12T13:21:43.938Z,27.61
2019-05-12T13:22:44.403Z,27.48
2019-05-12T13:23:45.269Z,27.37
2019-05-12T13:24:43.956Z,27.22
2019-05-12T13:25:48.372Z,27.25
2019-05-12T13:26:43.550Z,27.16
2019-05-12T13:27:42.633Z,27.19
2019-05-12T13:28:45.528Z,27.23
2019-05-12T13:29:42.642Z,27.37
2019-05-12T13:30:47.176Z,27.50
2019-05-12T13:31:46.479Z,27.57
2019-05-12T13:32:44.190Z,27.55
2019-05-12T13:33:44.248Z,27.41
2019-05-12T13:34:43.024Z,27.44
2019-05-12T13:35:43.484Z,27.47
2019-05-12T13:36:44.010Z,27.38
2019-05-12T13:37:43.287Z,27.18
2019-05-12T13:38:44.292Z,27.07
2019-05-12T13:39:55.174Z,27.13
2019-05-12T13:40:44.198Z,27.20
2019-05-12T13:41:43.778Z,27.29
2019-05-12T13:42:43.782Z,27.28
2019-05-12T13:43:42.688Z,27.07
2019-05-12T13:44:43.615Z,27.26
2019-05-12T13:45:43.968Z,27.34
2019-05-12T13:46:43.757Z,27.33
2019-05-12T13:47:43.976Z,27.34
2019-05-12T13:48:43.399Z,27.37
2019-05-12T13:49:47.272Z,27.47
2019-05-12T13:50:43.308Z,27.57
2019-05-12T13:51:42.965Z,27.68
2019-05-12T13:52:42.716Z,27.79
2019-05-12T13:53:46.513Z,27.86
2019-05-12T13:54:43.703Z,27.85
2019-05-12T13:55:47.546Z,27.93
2019-05-12T13:56:44.348Z,28.00
2019-05-12T13:57:52.323Z,27.97
2019-05-12T13:58:45.703Z,28.01
2019-05-12T13:59:43.493Z,27.97
2019-05-12T14:00:50.910Z,28.00
2019-05-12T14:01:45.505Z,27.95
2019-05-12T14:02:44.232Z,28.00
2019-05-12T14:03:48.674Z,27.93
2019-05-12T14:04:44.425Z,27.88
2019-05-12T14:05:50.546Z,27.91
2019-05-12T14:06:42.763Z,27.82
2019-05-12T14:07:43.681Z,27.66
2019-05-12T14:08:44.511Z,27.72
2019-05-12T14:09:43.726Z,27.67
2019-05-12T14:10:44.755Z,27.50
2019-05-12T14:11:43.754Z,27.38
2019-05-12T14:12:43.887Z,27.37
2019-05-12T14:13:42.793Z,27.29
2019-05-12T14:14:43.688Z,27.38
2019-05-12T14:15:44.349Z,27.47
2019-05-12T14:16:44.647Z,27.50
2019-05-12T14:17:43.583Z,27.68
2019-05-12T14:18:44.165Z,27.72
2019-05-12T14:19:43.769Z,27.79
2019-05-12T14:20:44.872Z,27.83
2019-05-12T14:21:42.795Z,27.75
2019-05-12T14:22:44.757Z,27.45
2019-05-12T14:23:43.664Z,27.23
2019-05-12T14:24:46.734Z,27.20
2019-05-12T14:25:43.741Z,27.10
2019-05-12T14:26:47.537Z,27.19
2019-05-12T14:27:44.321Z,27.22
2019-05-12T14:28:45.516Z,27.26
2019-05-12T14:29:44.098Z,27.37
2019-05-12T14:30:47.370Z,27.35
2019-05-12T14:31:51.060Z,27.45
2019-05-12T14:32:44.058Z,27.48
2019-05-12T14:33:44.214Z,27.66
2019-05-12T14:34:43.398Z,27.81
2019-05-12T14:35:45.311Z,27.98
2019-05-12T14:36:43.310Z,28.18
2019-05-12T14:37:45.830Z,28.34
2019-05-12T14:38:42.801Z,28.59
2019-05-12T14:39:46.220Z,28.72
2019-05-12T14:40:42.817Z,28.75
2019-05-12T14:41:52.834Z,28.87
2019-05-12T14:42:44.236Z,29.07
2019-05-12T14:43:47.523Z,28.96
2019-05-12T14:44:44.963Z,29.05
2019-05-12T14:45:44.011Z,29.15
2019-05-12T14:46:46.356Z,29.18
2019-05-12T14:47:43.678Z,29.28
2019-05-12T14:48:46.454Z,29.31
2019-05-12T14:49:43.594Z,28.94
2019-05-12T14:50:44.153Z,28.55
2019-05-12T14:51:44.270Z,28.18
2019-05-12T14:52:43.990Z,27.98
2019-05-12T14:53:46.065Z,27.86
2019-05-12T14:54:43.558Z,27.61
2019-05-12T14:55:42.805Z,27.23
2019-05-12T14:56:47.147Z,26.98
2019-05-12T14:57:42.792Z,26.96
2019-05-12T14:58:44.205Z,26.93
2019-05-12T14:59:42.797Z,26.98
2019-05-12T15:00:44.560Z,26.88
2019-05-12T15:01:56.918Z,26.91
2019-05-12T15:02:43.737Z,26.83
2019-05-12T15:03:47.814Z,26.68
2019-05-12T15:04:43.581Z,26.66
2019-05-12T15:05:47.381Z,26.44
2019-05-12T15:06:44.343Z,26.01
2019-05-12T15:07:51.198Z,25.63
2019-05-12T15:08:43.642Z,25.12
2019-05-12T15:09:42.766Z,24.62
2019-05-12T15:10:42.784Z,24.37
2019-05-12T15:11:43.744Z,24.24
2019-05-12T15:12:44.140Z,24.24
2019-05-12T15:13:43.696Z,23.92
2019-05-12T15:14:43.853Z,23.70
2019-05-12T15:15:44.060Z,23.28
2019-05-12T15:16:44.784Z,22.88
2019-05-12T15:17:44.379Z,22.80
2019-05-12T15:18:46.812Z,22.93
2019-05-12T15:19:44.057Z,22.99
2019-05-12T15:20:49.975Z,23.25
2019-05-12T15:21:43.691Z,23.44
2019-05-12T15:22:51.247Z,23.59
2019-05-12T15:23:44.125Z,23.73
2019-05-12T15:24:44.135Z,23.66
2019-05-12T15:25:43.312Z,23.71
2019-05-12T15:26:42.685Z,23.62
2019-05-12T15:27:46.052Z,23.52
2019-05-12T15:28:43.412Z,23.28
2019-05-12T15:29:43.145Z,23.02
2019-05-12T15:30:43.640Z,22.81
2019-05-12T15:31:53.127Z,22.55
2019-05-12T15:32:42.649Z,22.16
2019-05-12T15:33:43.965Z,21.84
2019-05-12T15:34:44.153Z,21.53
2019-05-12T15:35:43.915Z,21.14
2019-05-12T15:36:45.902Z,20.78
2019-05-12T15:37:43.707Z,20.42
2019-05-12T15:38:43.703Z,20.02
2019-05-12T15:39:44.034Z,19.67
2019-05-12T15:40:43.397Z,19.45
2019-05-12T15:41:42.589Z,19.11
2019-05-12T15:42:44.969Z,18.92
2019-05-12T15:43:44.418Z,18.74
2019-05-12T15:44:43.339Z,18.46
2019-05-12T15:45:43.644Z,18.27
2019-05-12T15:46:46.002Z,18.06
2019-05-12T15:47:44.556Z,17.95
2019-05-12T15:48:44.498Z,17.84
2019-05-12T15:49:44.269Z,17.73
2019-05-12T15:50:45.553Z,17.53
2019-05-12T15:51:53.117Z,17.49
2019-05-12T15:52:45.394Z,17.41
2019-05-12T15:53:44.557Z,17.24
2019-05-12T15:54:47.188Z,17.20
2019-05-12T15:55:43.474Z,17.10
2019-05-12T15:56:42.410Z,17.17
2019-05-12T15:57:44.015Z,17.07
2019-05-12T15:58:44.159Z,16.99
2019-05-12T15:59:43.495Z,16.89
2019-05-12T16:00:43.857Z,16.86
2019-05-12T16:01:43.916Z,16.86
2019-05-12T16:02:44.258Z,16.76
2019-05-12T16:03:43.834Z,16.73
2019-05-12T16:04:44.545Z,16.69
2019-05-12T16:05:44.374Z,16.59
2019-05-12T16:06:52.615Z,16.49
2019-05-12T16:07:43.639Z,16.50
2019-05-12T16:08:42.272Z,16.34
2019-05-12T16:09:45.385Z,16.32
2019-05-12T16:10:42.244Z,16.22
2019-05-12T16:11:42.236Z,16.21
2019-05-12T16:12:43.422Z,16.03
2019-05-12T16:13:44.909Z,15.98
2019-05-12T16:14:44.108Z,15.92
2019-05-12T16:15:43.835Z,15.88
2019-05-12T16:16:42.881Z,15.85
2019-05-12T16:17:44.075Z,15.70
2019-05-12T16:18:46.685Z,15.70
2019-05-12T16:19:43.819Z,15.63
2019-05-12T16:20:44.203Z,15.55
2019-05-12T16:21:45.338Z,15.55
2019-05-12T16:22:44.896Z,15.43
2019-05-12T16:23:44.515Z,15.44
2019-05-12T16:24:43.285Z,15.35
2019-05-12T16:25:42.054Z,15.35
2019-05-12T16:26:45.368Z,15.25
2019-05-12T16:27:44.185Z,15.29
2019-05-12T16:28:44.005Z,15.22
2019-05-12T16:29:45.554Z,15.23
2019-05-12T16:30:43.901Z,15.07
2019-05-12T16:31:45.597Z,15.08
2019-05-12T16:32:46.974Z,15.07
2019-05-12T16:33:43.645Z,14.96
2019-05-12T16:34:44.930Z,15.00
2019-05-12T16:35:44.117Z,14.99
2019-05-12T16:36:47.476Z,14.87
2019-05-12T16:37:43.987Z,14.89
2019-05-12T16:38:44.364Z,14.85
2019-05-12T16:39:46.869Z,14.81
2019-05-12T16:40:45.549Z,14.74
2019-05-12T16:41:43.863Z,14.67
2019-05-12T16:42:48.303Z,14.66
2019-05-12T16:43:44.019Z,14.73
2019-05-12T16:44:43.841Z,14.66
2019-05-12T16:45:41.786Z,14.66
2019-05-12T16:46:41.769Z,14.55
2019-05-12T16:47:41.772Z,14.45
2019-05-12T16:48:42.248Z,14.45
2019-05-12T16:49:44.062Z,14.48
2019-05-12T16:50:43.724Z,14.33
2019-05-12T16:51:43.702Z,14.30
2019-05-12T16:52:42.825Z,14.36
2019-05-12T16:53:43.633Z,14.33
2019-05-12T16:54:43.815Z,14.26
2019-05-12T16:55:46.504Z,14.26
2019-05-12T16:56:43.370Z,14.15
2019-05-12T16:57:47.535Z,14.15
2019-05-12T16:58:43.375Z,14.13
2019-05-12T16:59:41.596Z,14.08
2019-05-12T17:00:45.185Z,14.08
2019-05-12T17:01:43.756Z,14.03
2019-05-12T17:02:42.283Z,13.98
2019-05-12T17:03:41.553Z,14.00
2019-05-12T17:04:41.522Z,13.95
2019-05-12T17:05:41.512Z,13.98
2019-05-12T17:06:43.262Z,13.89
2019-05-12T17:07:43.907Z,13.89
2019-05-12T17:08:43.694Z,13.87
2019-05-12T17:09:43.357Z,13.83
2019-05-12T17:10:46.990Z,13.83
2019-05-12T17:11:46.693Z,13.75
2019-05-12T17:12:43.688Z,13.75
2019-05-12T17:13:47.351Z,13.73
2019-05-12T17:14:48.091Z,13.78
2019-05-12T17:15:43.367Z,13.76
2019-05-12T17:16:45.124Z,13.71
2019-05-12T17:17:41.338Z,13.64
2019-05-12T17:18:41.326Z,13.68
2019-05-12T17:19:43.379Z,13.70
2019-05-12T17:20:47.002Z,13.64
2019-05-12T17:21:41.288Z,13.61
2019-05-12T17:22:45.776Z,13.57
2019-05-12T17:23:41.258Z,13.58
2019-05-12T17:24:41.274Z,13.54
2019-05-12T17:25:41.226Z,13.54
2019-05-12T17:26:41.235Z,13.55
2019-05-12T17:27:41.222Z,13.42
2019-05-12T17:28:43.474Z,13.55
2019-05-12T17:29:43.379Z,13.54
2019-05-12T17:30:43.535Z,13.52
2019-05-12T17:31:41.143Z,13.61
2019-05-12T17:32:54.899Z,13.54
2019-05-12T17:33:41.116Z,13.64
2019-05-12T17:34:45.843Z,13.61
2019-05-12T17:35:41.082Z,13.64
2019-05-12T17:36:41.120Z,13.67
2019-05-12T17:37:41.516Z,13.61
2019-05-12T17:38:41.046Z,13.61
2019-05-12T17:39:41.047Z,13.65
2019-05-12T17:40:41.021Z,13.62
2019-05-12T17:41:44.993Z,13.61
2019-05-12T17:42:41.016Z,13.58
2019-05-12T17:43:54.847Z,13.64
2019-05-12T17:44:40.956Z,13.57
2019-05-12T17:45:40.940Z,13.57
2019-05-12T17:46:40.933Z,13.50
2019-05-12T17:47:41.011Z,13.47
2019-05-12T17:48:42.837Z,13.46
2019-05-12T17:49:43.410Z,13.49
2019-05-12T17:50:48.557Z,13.37
2019-05-12T17:51:40.864Z,13.39
2019-05-12T17:52:40.850Z,13.27
2019-05-12T17:53:40.831Z,13.27
2019-05-12T17:54:43.234Z,13.26
2019-05-12T17:55:42.630Z,13.24
2019-05-12T17:56:40.782Z,13.17
2019-05-12T17:57:40.794Z,13.17
2019-05-12T17:58:45.197Z,13.13
2019-05-12T17:59:42.555Z,13.08
2019-05-12T18:00:41.261Z,13.03
2019-05-12T18:01:40.721Z,13.02
2019-05-12T18:02:40.711Z,12.91
2019-05-12T18:03:48.706Z,12.93
2019-05-12T18:04:40.682Z,12.90
2019-05-12T18:05:42.519Z,12.81
2019-05-12T18:06:40.639Z,12.78
2019-05-12T18:07:40.641Z,12.76
2019-05-12T18:08:40.617Z,12.81
2019-05-12T18:09:40.605Z,12.63
2019-05-12T18:10:40.596Z,12.62
2019-05-12T18:11:40.585Z,12.69
2019-05-12T18:12:44.842Z,12.70
2019-05-12T18:13:40.544Z,12.66
2019-05-12T18:14:46.793Z,12.63
2019-05-12T18:15:40.529Z,12.47
2019-05-12T18:16:43.327Z,12.48
2019-05-12T18:17:47.318Z,12.43
2019-05-12T18:18:40.462Z,12.45
2019-05-12T18:19:40.484Z,12.37
2019-05-12T18:20:43.992Z,12.37
2019-05-12T18:21:40.427Z,12.21
2019-05-12T18:22:44.900Z,12.25
2019-05-12T18:23:40.393Z,12.20
2019-05-12T18:24:40.983Z,12.28
2019-05-12T18:25:40.363Z,12.15
2019-05-12T18:26:40.344Z,12.25
2019-05-12T18:27:44.505Z,12.08